Terminal Aerodrome Forecast
Issued by NWS

Home | Current Version | Previous Version | Text Only | Print | Product List | Glossary Off
Versions: 1 2 3 4 5 6 7 8 9 10 11 12 13 14 15 16 17 18 19 20 21 22

858
FTUS43 KICT 210733 AAB
TAFCNU
TAF AMD
KCNU 210733Z 2108/2206 VRB03KT 1SM BR SCT002 BKN100
      TEMPO 2108/2110 1/4SM FG VV002
     FM211000 35006KT P6SM SKC
      TEMPO 2110/2114 3SM BR
     FM220000 VRB04KT P6SM SKC=

USA.gov is the U.S. government's official web portal to all federal, state and local government web resources and services.